Terminal Aerodrome Forecast
Issued by NWS

Home | Current Version | Previous Version | Text Only | Print | Product List | Glossary On
Versions: 1 2 3 4 5 6 7 8 9 10 11 12 13 14 15 16 17 18 19 20 21 22
000
FTUS43 KDMX 291728 AAB
TAFMCW
TAF AMD
KMCW 291728Z 2917/3018 26015G23KT P6SM FEW030 BKN040
     FM292000 27011KT P6SM VCSH BKN040
     FM292300 27011KT P6SM SCT060 SCT110
     FM300500 VRB03KT P6SM SCT060 BKN120
     FM301700 15007KT P6SM SCT060 BKN150=

USA.gov is the U.S. government's official web portal to all federal, state and local government web resources and services.